createdAt,value
2022-10-15T00:02:35.691Z,96.60
2022-10-15T00:06:49.603Z,96.60
2022-10-15T00:11:11.028Z,96.90
2022-10-15T00:15:24.826Z,96.60
2022-10-15T00:19:38.550Z,96.60
2022-10-15T00:23:52.514Z,96.50
2022-10-15T00:28:07.925Z,96.40
2022-10-15T00:32:22.040Z,96.40
2022-10-15T00:36:37.411Z,96.30
2022-10-15T00:40:51.333Z,96.30
2022-10-15T00:45:07.726Z,96.30
2022-10-15T00:49:25.863Z,96.30
2022-10-15T00:53:39.662Z,96.20
2022-10-15T00:57:55.305Z,96.20
2022-10-15T01:02:11.509Z,96.10
2022-10-15T01:06:27.029Z,96.00
2022-10-15T01:10:51.929Z,96.00
2022-10-15T01:15:11.356Z,96.00
2022-10-15T01:19:44.981Z,96.10
2022-10-15T01:24:43.583Z,96.40
2022-10-15T01:29:07.545Z,96.20
2022-10-15T01:33:37.021Z,96.10
2022-10-15T01:37:56.837Z,96.10
2022-10-15T01:42:18.454Z,96.10
2022-10-15T01:46:39.950Z,96.00
2022-10-15T01:51:00.937Z,96.00
2022-10-15T01:55:18.147Z,96.10
2022-10-15T01:59:33.900Z,96.10
2022-10-15T02:03:48.716Z,96.10
2022-10-15T02:08:11.485Z,96.00
2022-10-15T02:12:35.659Z,96.00
2022-10-15T02:16:56.289Z,96.00
2022-10-15T02:21:13.939Z,95.90
2022-10-15T02:25:29.954Z,95.70
2022-10-15T02:29:47.706Z,95.60
2022-10-15T02:34:06.946Z,95.50
2022-10-15T02:38:27.962Z,95.40
2022-10-15T02:42:43.143Z,95.30
2022-10-15T02:47:00.038Z,95.10
2022-10-15T02:51:13.952Z,94.90
2022-10-15T02:55:27.974Z,94.70
2022-10-15T02:59:43.148Z,94.60
2022-10-15T03:03:57.504Z,94.50
2022-10-15T03:08:12.628Z,94.50
2022-10-15T03:12:26.887Z,94.50
2022-10-15T03:16:42.635Z,94.40
2022-10-15T03:20:58.662Z,94.40
2022-10-15T03:25:12.582Z,94.40
2022-10-15T03:29:26.836Z,94.30
2022-10-15T03:33:50.594Z,94.20
2022-10-15T03:38:09.229Z,94.10
2022-10-15T03:42:23.989Z,94.10
2022-10-15T03:46:38.706Z,94.30
2022-10-15T03:50:53.896Z,94.40
2022-10-15T03:55:09.544Z,94.50
2022-10-15T03:59:23.664Z,94.50
2022-10-15T04:03:45.257Z,94.70
2022-10-15T04:08:04.125Z,94.60
2022-10-15T04:12:22.180Z,94.50
2022-10-15T04:16:36.744Z,94.60
2022-10-15T04:21:00.514Z,94.50
2022-10-15T04:25:15.960Z,94.40
2022-10-15T04:29:29.972Z,94.30
2022-10-15T04:33:56.552Z,94.30
2022-10-15T04:38:10.313Z,94.20
2022-10-15T04:42:43.790Z,94.10
2022-10-15T04:46:57.906Z,94.10
2022-10-15T04:51:32.498Z,94.20
2022-10-15T04:56:02.609Z,94.30
2022-10-15T05:00:17.772Z,94.40
2022-10-15T05:05:00.498Z,94.40
2022-10-15T05:09:14.504Z,94.60
2022-10-15T05:13:34.551Z,94.70
2022-10-15T05:17:51.795Z,94.80
2022-10-15T05:22:05.712Z,94.70
2022-10-15T05:26:25.347Z,94.70
2022-10-15T05:30:40.088Z,94.60
2022-10-15T05:34:55.286Z,94.50
2022-10-15T05:39:10.661Z,94.30
2022-10-15T05:43:29.122Z,94.20
2022-10-15T05:47:44.740Z,94.00
2022-10-15T05:52:03.215Z,93.90
2022-10-15T05:56:40.116Z,93.80
2022-10-15T06:00:57.164Z,93.60
2022-10-15T06:05:10.961Z,93.70
2022-10-15T06:09:26.421Z,93.60
2022-10-15T06:13:41.054Z,93.50
2022-10-15T06:17:54.983Z,93.40
2022-10-15T06:22:08.701Z,93.30
2022-10-15T06:26:23.866Z,93.10
2022-10-15T06:30:37.939Z,93.10
2022-10-15T06:34:51.656Z,92.90
2022-10-15T06:39:05.389Z,92.80
2022-10-15T06:43:20.536Z,92.50
2022-10-15T06:47:34.358Z,92.40
2022-10-15T06:51:48.068Z,92.20
2022-10-15T06:56:03.313Z,92.30
2022-10-15T07:00:25.456Z,92.20
2022-10-15T07:04:40.139Z,91.60
2022-10-15T07:08:53.747Z,91.30
2022-10-15T07:13:07.458Z,91.00
2022-10-15T07:17:22.638Z,90.50
2022-10-15T07:21:36.461Z,90.40
2022-10-15T07:25:50.212Z,90.60
2022-10-15T07:30:04.230Z,90.60
2022-10-15T07:34:19.394Z,90.40
2022-10-15T07:38:33.229Z,90.30
2022-10-15T07:42:53.084Z,90.10
2022-10-15T07:47:09.097Z,90.00
2022-10-15T07:51:27.261Z,90.30
2022-10-15T07:55:41.361Z,89.90
2022-10-15T07:59:55.374Z,89.30
2022-10-15T08:04:09.118Z,87.70
2022-10-15T08:08:26.307Z,86.70
2022-10-15T08:12:40.188Z,86.20
2022-10-15T08:16:53.925Z,85.70
2022-10-15T08:21:08.636Z,83.60
2022-10-15T08:25:23.859Z,82.20
2022-10-15T08:29:37.800Z,80.90
2022-10-15T08:33:51.708Z,79.80
2022-10-15T08:38:05.473Z,79.40
2022-10-15T08:42:25.916Z,80.30
2022-10-15T08:46:45.434Z,80.90
2022-10-15T08:51:03.738Z,79.70
2022-10-15T08:55:20.207Z,78.20
2022-10-15T08:59:42.066Z,77.10
2022-10-15T09:04:08.848Z,75.00
2022-10-15T09:08:29.780Z,69.60
2022-10-15T09:12:49.634Z,66.30
2022-10-15T09:17:08.768Z,64.60
2022-10-15T09:21:25.358Z,63.60
2022-10-15T09:25:44.172Z,63.90
2022-10-15T09:30:05.600Z,63.60
2022-10-15T09:34:27.130Z,64.20
2022-10-15T09:38:51.658Z,64.70
2022-10-15T09:43:07.012Z,64.90
2022-10-15T09:47:25.619Z,64.80
2022-10-15T09:51:59.241Z,64.60
2022-10-15T09:56:17.510Z,64.70
2022-10-15T10:00:54.540Z,64.70
2022-10-15T10:05:29.205Z,64.30
2022-10-15T10:09:54.678Z,63.80
2022-10-15T10:14:23.189Z,63.70
2022-10-15T10:18:41.963Z,64.40
2022-10-15T10:22:58.140Z,64.40
2022-10-15T10:27:30.687Z,64.30
2022-10-15T10:31:45.141Z,63.90
2022-10-15T10:36:22.324Z,63.90
2022-10-15T10:40:37.433Z,64.20
2022-10-15T10:44:56.723Z,63.90
2022-10-15T10:49:10.403Z,61.90
2022-10-15T10:53:26.016Z,60.60
2022-10-15T10:57:49.068Z,60.40
2022-10-15T11:02:06.379Z,60.80
2022-10-15T11:06:39.813Z,59.60
2022-10-15T11:11:01.035Z,57.70
2022-10-15T11:15:26.196Z,57.20
2022-10-15T11:24:33.460Z,57.00
2022-10-15T11:29:06.910Z,57.30
2022-10-15T11:33:46.811Z,57.70
2022-10-15T11:38:15.043Z,57.90
2022-10-15T11:42:36.641Z,58.30
2022-10-15T11:47:00.132Z,59.30
2022-10-15T11:51:21.588Z,60.30
2022-10-15T11:55:42.244Z,60.70
2022-10-15T11:59:59.593Z,60.80
2022-10-15T12:04:19.311Z,61.00
2022-10-15T12:08:36.733Z,61.50
2022-10-15T12:13:00.089Z,61.80
2022-10-15T12:17:22.912Z,62.30
2022-10-15T12:21:39.681Z,62.50
2022-10-15T12:25:53.650Z,62.40
2022-10-15T12:30:23.683Z,62.30
2022-10-15T12:34:42.619Z,62.40
2022-10-15T12:39:00.474Z,62.30
2022-10-15T12:43:16.951Z,61.40
2022-10-15T12:47:51.997Z,60.80
2022-10-15T12:52:45.260Z,61.10
2022-10-15T12:56:59.029Z,61.60
2022-10-15T13:01:30.864Z,61.70
2022-10-15T13:05:51.605Z,61.90
2022-10-15T13:10:22.847Z,62.10
2022-10-15T13:14:42.495Z,61.80
2022-10-15T13:18:57.296Z,61.80
2022-10-15T13:23:29.977Z,61.50
2022-10-15T13:27:44.394Z,61.40
2022-10-15T13:31:59.102Z,61.50
2022-10-15T13:36:22.127Z,61.20
2022-10-15T13:40:38.320Z,60.50
2022-10-15T13:44:59.872Z,60.10
2022-10-15T13:49:15.119Z,60.10
2022-10-15T13:53:31.482Z,60.00
2022-10-15T13:57:47.847Z,60.30
2022-10-15T14:02:04.345Z,60.90
2022-10-15T14:06:20.435Z,61.20
2022-10-15T14:10:34.091Z,61.30
2022-10-15T14:14:49.430Z,61.30
2022-10-15T14:19:12.538Z,61.20
2022-10-15T14:23:27.691Z,61.10
2022-10-15T14:27:46.924Z,61.20
2022-10-15T14:32:02.123Z,61.30
2022-10-15T14:36:26.708Z,61.60
2022-10-15T14:40:40.459Z,61.50
2022-10-15T14:44:55.947Z,61.50
2022-10-15T14:49:27.143Z,61.80
2022-10-15T14:53:46.607Z,62.20
2022-10-15T14:58:03.071Z,63.00
2022-10-15T15:02:17.699Z,62.50
2022-10-15T15:06:34.449Z,62.60
2022-10-15T15:10:49.510Z,62.70
2022-10-15T15:15:03.272Z,63.00
2022-10-15T15:19:16.960Z,63.30
2022-10-15T15:23:33.955Z,63.80
2022-10-15T15:27:48.195Z,64.20
2022-10-15T15:32:02.161Z,64.70
2022-10-15T15:36:20.582Z,65.10
2022-10-15T15:40:38.677Z,65.40
2022-10-15T15:44:52.508Z,65.40
2022-10-15T15:49:06.201Z,65.40
2022-10-15T15:53:20.223Z,65.60
2022-10-15T15:57:35.622Z,65.70
2022-10-15T16:01:49.839Z,65.70
2022-10-15T16:06:07.114Z,65.80
2022-10-15T16:10:20.909Z,66.60
2022-10-15T16:14:36.096Z,66.90
2022-10-15T16:18:49.752Z,66.40
2022-10-15T16:23:03.564Z,66.60
2022-10-15T16:27:17.333Z,66.80
2022-10-15T16:31:36.542Z,66.90
2022-10-15T16:35:53.596Z,67.10
2022-10-15T16:40:08.838Z,67.50
2022-10-15T16:44:22.661Z,68.30
2022-10-15T16:48:37.757Z,69.20
2022-10-15T16:52:51.431Z,69.60
2022-10-15T16:57:05.245Z,70.10
2022-10-15T17:01:21.124Z,70.40
2022-10-15T17:05:36.204Z,70.60
2022-10-15T17:14:11.072Z,71.40
2022-10-15T17:18:26.019Z,71.90
2022-10-15T17:22:41.560Z,72.10
2022-10-15T17:26:57.910Z,73.00
2022-10-15T17:31:15.283Z,72.50
2022-10-15T17:35:31.460Z,72.70
2022-10-15T17:39:47.025Z,74.10
2022-10-15T17:44:00.846Z,73.80
2022-10-15T17:48:14.646Z,74.20
2022-10-15T17:52:28.652Z,74.90
2022-10-15T17:56:44.396Z,75.40
2022-10-15T18:00:59.584Z,75.90
2022-10-15T18:05:13.375Z,76.00
2022-10-15T18:09:29.116Z,76.10
2022-10-15T18:13:46.028Z,76.20
2022-10-15T18:18:00.096Z,76.30
2022-10-15T18:22:14.130Z,76.50
2022-10-15T18:26:27.735Z,76.60
2022-10-15T18:30:43.942Z,76.80
2022-10-15T18:34:58.331Z,77.10
2022-10-15T18:39:13.924Z,77.70
2022-10-15T18:43:27.609Z,78.40
2022-10-15T18:47:43.175Z,79.20
2022-10-15T18:51:57.405Z,80.10
2022-10-15T18:56:14.041Z,80.80
2022-10-15T19:00:28.415Z,81.50
2022-10-15T19:04:43.594Z,81.80
2022-10-15T19:08:58.348Z,82.00
2022-10-15T19:13:16.276Z,81.80
2022-10-15T19:17:30.016Z,81.60
2022-10-15T19:21:46.084Z,81.70
2022-10-15T19:25:59.999Z,81.80
2022-10-15T19:30:13.755Z,81.90
2022-10-15T19:34:27.525Z,82.10
2022-10-15T19:38:42.539Z,82.40
2022-10-15T19:42:56.725Z,82.40
2022-10-15T19:47:10.663Z,82.70
2022-10-15T19:51:26.193Z,82.80
2022-10-15T19:55:41.635Z,83.10
2022-10-15T19:59:55.507Z,83.30
2022-10-15T20:04:12.510Z,83.60
2022-10-15T20:08:26.838Z,84.00
2022-10-15T20:12:42.153Z,84.50
2022-10-15T20:16:56.300Z,84.90
2022-10-15T20:21:11.887Z,85.50
2022-10-15T20:25:26.372Z,86.30
2022-10-15T20:29:41.956Z,86.50
2022-10-15T20:33:56.061Z,86.60
2022-10-15T20:38:10.130Z,87.20
2022-10-15T20:42:24.331Z,88.00
2022-10-15T20:46:46.791Z,88.50
2022-10-15T20:51:01.628Z,89.10
2022-10-15T20:55:18.361Z,89.60
2022-10-15T20:59:32.240Z,90.10
2022-10-15T21:03:47.679Z,90.30
2022-10-15T21:08:01.740Z,90.60
2022-10-15T21:12:16.123Z,90.80
2022-10-15T21:16:29.935Z,90.70
2022-10-15T21:20:45.441Z,90.50
2022-10-15T21:24:59.174Z,90.50
2022-10-15T21:29:16.432Z,90.60
2022-10-15T21:33:31.487Z,90.80
2022-10-15T21:37:46.964Z,91.20
2022-10-15T21:42:01.087Z,91.30
2022-10-15T21:46:16.153Z,91.60
2022-10-15T21:50:29.891Z,91.90
2022-10-15T21:54:45.205Z,91.90
2022-10-15T21:59:00.437Z,91.70
2022-10-15T22:03:15.435Z,91.70
2022-10-15T22:07:29.168Z,91.70
2022-10-15T22:11:47.393Z,91.50
2022-10-15T22:16:02.926Z,91.30
2022-10-15T22:20:21.399Z,91.50
2022-10-15T22:24:38.702Z,91.90
2022-10-15T22:28:55.485Z,92.10
2022-10-15T22:33:09.413Z,92.50
2022-10-15T22:37:23.176Z,93.00
2022-10-15T22:41:39.719Z,93.40
2022-10-15T22:45:54.789Z,93.70
2022-10-15T22:50:09.987Z,93.80
2022-10-15T22:54:23.898Z,93.80
2022-10-15T22:58:37.747Z,93.60
2022-10-15T23:02:53.111Z,93.90
2022-10-15T23:07:06.899Z,93.70
2022-10-15T23:11:25.105Z,93.70
2022-10-15T23:15:39.077Z,93.80
2022-10-15T23:19:57.259Z,93.90
2022-10-15T23:24:11.859Z,93.80
2022-10-15T23:28:26.558Z,93.70
2022-10-15T23:32:40.274Z,93.50
2022-10-15T23:36:55.581Z,93.40
2022-10-15T23:41:10.908Z,93.20
2022-10-15T23:45:24.992Z,93.00
2022-10-15T23:49:38.771Z,92.80
2022-10-15T23:53:55.405Z,92.60
2022-10-15T23:58:09.753Z,92.50
